createdAt,value
2023-05-25T00:01:22.831Z,17.70
2023-05-25T00:03:49.919Z,17.70
2023-05-25T00:06:16.791Z,17.50
2023-05-25T00:08:43.546Z,17.60
2023-05-25T00:11:10.267Z,17.80
2023-05-25T00:13:37.593Z,17.70
2023-05-25T00:16:04.907Z,17.80
2023-05-25T00:18:32.679Z,17.70
2023-05-25T00:20:59.411Z,17.70
2023-05-25T00:23:26.243Z,17.70
2023-05-25T00:25:56.084Z,17.60
2023-05-25T00:28:22.820Z,17.10
2023-05-25T00:30:49.873Z,17.00
2023-05-25T00:33:16.750Z,16.90
2023-05-25T00:35:44.262Z,17.10
2023-05-25T00:38:11.838Z,17.10
2023-05-25T00:40:39.562Z,17.10
2023-05-25T00:43:06.368Z,16.80
2023-05-25T00:45:33.462Z,16.90
2023-05-25T00:48:00.215Z,17.10
2023-05-25T00:50:27.037Z,17.40
2023-05-25T00:52:53.804Z,17.60
2023-05-25T00:55:21.037Z,17.60
2023-05-25T00:57:47.979Z,17.70
2023-05-25T01:00:14.785Z,17.60
2023-05-25T01:02:42.202Z,17.70
2023-05-25T01:05:09.391Z,17.70
2023-05-25T01:07:36.554Z,17.80
2023-05-25T01:10:03.389Z,17.50
2023-05-25T01:12:30.126Z,17.30
2023-05-25T01:14:58.098Z,17.30
2023-05-25T01:17:25.087Z,17.40
2023-05-25T01:20:09.017Z,17.50
2023-05-25T01:22:37.675Z,17.50
2023-05-25T01:25:04.429Z,17.10
2023-05-25T01:27:31.180Z,16.70
2023-05-25T01:29:58.116Z,16.70
2023-05-25T01:32:24.876Z,16.70
2023-05-25T01:34:51.632Z,16.70
2023-05-25T01:37:18.472Z,16.70
2023-05-25T01:39:45.234Z,16.70
2023-05-25T01:42:12.326Z,16.70
2023-05-25T01:44:39.146Z,16.40
2023-05-25T01:47:05.914Z,16.50
2023-05-25T01:49:32.728Z,16.40
2023-05-25T01:51:59.530Z,16.40
2023-05-25T01:54:27.436Z,16.40
2023-05-25T01:56:55.214Z,16.40
2023-05-25T01:59:25.529Z,16.50
2023-05-25T02:01:53.575Z,16.40
2023-05-25T02:04:20.578Z,16.60
2023-05-25T02:06:47.455Z,16.70
2023-05-25T02:09:15.230Z,16.90
2023-05-25T02:11:42.114Z,17.30
2023-05-25T02:14:08.929Z,17.50
2023-05-25T02:16:35.815Z,17.40
2023-05-25T02:19:02.670Z,17.60
2023-05-25T02:21:31.130Z,17.70
2023-05-25T02:24:03.317Z,17.50
2023-05-25T02:26:31.152Z,17.50
2023-05-25T02:28:58.946Z,17.50
2023-05-25T02:31:25.837Z,17.40
2023-05-25T02:33:54.151Z,17.40
2023-05-25T02:36:21.580Z,17.40
2023-05-25T02:38:48.655Z,17.30
2023-05-25T02:41:18.858Z,17.30
2023-05-25T02:43:45.705Z,17.40
2023-05-25T02:46:12.748Z,17.40
2023-05-25T02:48:39.989Z,17.30
2023-05-25T02:51:08.597Z,16.70
2023-05-25T02:53:35.350Z,16.40
2023-05-25T02:56:02.056Z,16.50
2023-05-25T02:58:29.417Z,16.50
2023-05-25T03:00:56.200Z,16.70
2023-05-25T03:03:23.116Z,16.40
2023-05-25T03:05:49.921Z,16.60
2023-05-25T03:08:18.529Z,16.70
2023-05-25T03:10:45.472Z,16.90
2023-05-25T03:13:13.497Z,16.90
2023-05-25T03:15:40.313Z,16.90
2023-05-25T03:18:07.173Z,16.70
2023-05-25T03:20:34.008Z,16.40
2023-05-25T03:23:00.947Z,16.40
2023-05-25T03:25:28.415Z,16.40
2023-05-25T03:27:57.648Z,16.60
2023-05-25T03:30:25.465Z,16.70
2023-05-25T03:32:52.179Z,16.50
2023-05-25T03:35:18.988Z,16.50
2023-05-25T03:37:45.870Z,16.50
2023-05-25T03:40:13.243Z,16.60
2023-05-25T03:42:40.061Z,16.60
2023-05-25T03:45:07.955Z,16.50
2023-05-25T03:47:35.779Z,16.50
2023-05-25T03:50:02.626Z,16.40
2023-05-25T03:52:29.466Z,16.40
2023-05-25T03:54:56.347Z,16.30
2023-05-25T03:57:23.137Z,16.20
2023-05-25T03:59:50.062Z,16.20
2023-05-25T04:02:17.288Z,16.30
2023-05-25T04:04:46.172Z,16.00
2023-05-25T04:07:14.270Z,16.10
2023-05-25T04:09:46.589Z,16.30
2023-05-25T04:12:20.667Z,16.40
2023-05-25T04:14:47.471Z,16.10
2023-05-25T04:17:14.471Z,16.20
2023-05-25T04:19:41.279Z,16.40
2023-05-25T04:22:14.253Z,16.50
2023-05-25T04:24:41.068Z,16.40
2023-05-25T04:27:08.237Z,16.60
2023-05-25T04:29:35.027Z,16.80
2023-05-25T04:32:01.983Z,16.90
2023-05-25T04:34:28.857Z,17.00
2023-05-25T04:36:57.234Z,16.90
2023-05-25T04:39:24.009Z,16.80
2023-05-25T04:41:50.791Z,16.70
2023-05-25T04:44:17.741Z,16.70
2023-05-25T04:46:45.536Z,16.60
2023-05-25T04:49:12.362Z,16.60
2023-05-25T04:51:39.164Z,16.30
2023-05-25T04:54:05.915Z,16.20
2023-05-25T04:56:32.960Z,16.20
2023-05-25T04:58:59.774Z,16.50
2023-05-25T05:01:26.715Z,16.80
2023-05-25T05:03:53.639Z,16.80
2023-05-25T05:06:20.643Z,17.00
2023-05-25T05:08:47.400Z,17.30
2023-05-25T05:11:18.008Z,17.10
2023-05-25T05:13:44.947Z,16.60
2023-05-25T05:16:11.788Z,16.70
2023-05-25T05:18:38.562Z,16.90
2023-05-25T05:21:05.310Z,17.20
2023-05-25T05:23:35.160Z,17.40
2023-05-25T05:26:01.915Z,17.70
2023-05-25T05:28:28.903Z,17.60
2023-05-25T05:30:55.666Z,17.30
2023-05-25T05:33:22.558Z,17.30
2023-05-25T05:35:50.743Z,17.30
2023-05-25T05:38:20.008Z,17.70
2023-05-25T05:40:46.853Z,17.60
2023-05-25T05:43:14.629Z,17.70
2023-05-25T05:45:41.410Z,17.70
2023-05-25T05:48:08.294Z,18.00
2023-05-25T05:50:35.522Z,18.60
2023-05-25T05:53:04.046Z,18.60
2023-05-25T05:55:35.121Z,17.90
2023-05-25T05:58:04.312Z,18.50
2023-05-25T06:00:31.281Z,18.80
2023-05-25T06:02:58.236Z,18.90
2023-05-25T06:05:25.885Z,19.20
2023-05-25T06:07:52.855Z,19.30
2023-05-25T06:10:19.657Z,19.20
2023-05-25T06:12:46.466Z,19.60
2023-05-25T06:15:14.329Z,19.60
2023-05-25T06:17:41.129Z,19.80
2023-05-25T06:20:08.006Z,20.20
2023-05-25T06:22:37.323Z,20.20
2023-05-25T06:25:05.125Z,20.50
2023-05-25T06:27:31.894Z,20.60
2023-05-25T06:29:59.651Z,20.80
2023-05-25T06:32:31.703Z,21.00
2023-05-25T06:34:58.686Z,20.60
2023-05-25T06:37:26.300Z,20.70
2023-05-25T06:39:54.887Z,20.70
2023-05-25T06:42:23.114Z,20.80
2023-05-25T06:44:55.913Z,21.00
2023-05-25T06:47:27.532Z,21.20
2023-05-25T06:49:55.399Z,20.70
2023-05-25T06:52:22.346Z,20.20
2023-05-25T06:54:49.193Z,19.90
2023-05-25T06:57:17.006Z,19.70
2023-05-25T06:59:43.838Z,19.30
2023-05-25T07:02:10.667Z,19.30
2023-05-25T07:04:37.505Z,19.20
2023-05-25T07:07:04.341Z,19.00
2023-05-25T07:09:31.472Z,19.20
2023-05-25T07:12:01.952Z,19.40
2023-05-25T07:14:28.966Z,19.70
2023-05-25T07:16:55.745Z,19.80
2023-05-25T07:19:22.535Z,19.60
2023-05-25T07:21:49.904Z,19.20
2023-05-25T07:24:17.784Z,19.10
2023-05-25T07:26:45.184Z,19.20
2023-05-25T07:29:12.533Z,19.50
2023-05-25T07:31:39.396Z,19.50
2023-05-25T07:34:07.843Z,19.40
2023-05-25T07:36:34.594Z,19.20
2023-05-25T07:39:02.290Z,19.30
2023-05-25T07:41:30.071Z,19.40
2023-05-25T07:43:57.340Z,19.20
2023-05-25T07:46:24.125Z,19.30
2023-05-25T07:48:51.501Z,19.40
2023-05-25T07:51:18.260Z,19.50
2023-05-25T07:53:45.088Z,19.60
2023-05-25T07:56:12.875Z,19.80
2023-05-25T07:58:39.659Z,19.90
2023-05-25T08:01:14.207Z,19.90
2023-05-25T08:06:14.688Z,19.70
2023-05-25T08:08:41.532Z,19.80
2023-05-25T08:11:08.288Z,20.10
2023-05-25T08:13:36.614Z,20.30
2023-05-25T08:16:03.421Z,20.10
2023-05-25T08:18:30.256Z,20.10
2023-05-25T08:20:57.246Z,20.60
2023-05-25T08:23:24.304Z,20.60
2023-05-25T08:25:52.184Z,21.10
2023-05-25T08:28:19.339Z,20.80
2023-05-25T08:30:46.221Z,20.90
2023-05-25T08:33:14.268Z,20.80
2023-05-25T08:35:41.069Z,20.80
2023-05-25T08:38:08.036Z,21.20
2023-05-25T08:40:34.775Z,21.60
2023-05-25T08:43:01.622Z,22.00
2023-05-25T08:48:00.762Z,21.60
2023-05-25T08:50:29.217Z,21.70
2023-05-25T08:52:56.050Z,22.10
2023-05-25T08:55:22.846Z,22.00
2023-05-25T08:57:49.555Z,22.00
2023-05-25T09:00:17.125Z,21.50
2023-05-25T09:02:46.322Z,21.80
2023-05-25T09:05:14.526Z,22.20
2023-05-25T09:07:41.341Z,22.30
2023-05-25T09:10:08.385Z,22.50
2023-05-25T09:12:35.670Z,22.30
2023-05-25T09:15:02.478Z,22.60
2023-05-25T09:17:29.246Z,22.50
2023-05-25T09:19:56.874Z,22.70
2023-05-25T09:22:23.760Z,22.90
2023-05-25T09:24:51.358Z,23.20
2023-05-25T09:27:18.182Z,23.40
2023-05-25T09:29:44.990Z,22.70
2023-05-25T09:32:12.777Z,22.20
2023-05-25T09:34:39.999Z,22.30
2023-05-25T09:37:06.829Z,22.70
2023-05-25T09:39:33.723Z,22.80
2023-05-25T09:42:00.646Z,22.80
2023-05-25T09:44:27.496Z,23.00
2023-05-25T09:46:54.298Z,23.20
2023-05-25T09:49:21.135Z,23.30
2023-05-25T09:51:48.279Z,23.80
2023-05-25T09:54:18.001Z,23.70
2023-05-25T09:56:44.960Z,23.60
2023-05-25T09:59:11.788Z,24.10
2023-05-25T10:01:38.621Z,24.30
2023-05-25T10:04:05.778Z,23.80
2023-05-25T10:06:32.583Z,23.60
2023-05-25T10:08:59.395Z,24.00
2023-05-25T10:11:26.163Z,23.60
2023-05-25T10:13:55.424Z,24.10
2023-05-25T10:16:22.164Z,24.50
2023-05-25T10:18:49.058Z,24.20
2023-05-25T10:21:17.176Z,24.00
2023-05-25T10:23:44.022Z,23.40
2023-05-25T10:26:23.972Z,23.40
2023-05-25T10:28:50.758Z,23.80
2023-05-25T10:31:21.126Z,24.10
2023-05-25T10:33:51.989Z,23.90
2023-05-25T10:36:19.410Z,23.50
2023-05-25T10:38:47.225Z,23.20
2023-05-25T10:41:14.051Z,23.40
2023-05-25T10:43:41.809Z,23.70
2023-05-25T10:46:08.656Z,23.80
2023-05-25T10:48:35.494Z,23.90
2023-05-25T10:51:04.601Z,24.10
2023-05-25T10:53:31.356Z,23.90
2023-05-25T10:55:59.486Z,24.50
2023-05-25T10:58:26.296Z,24.80
2023-05-25T11:00:53.356Z,24.90
2023-05-25T11:03:22.469Z,24.50
2023-05-25T11:05:49.297Z,24.40
2023-05-25T11:08:16.187Z,24.20
2023-05-25T11:10:45.188Z,24.40
2023-05-25T11:13:12.018Z,24.40
2023-05-25T11:15:40.018Z,24.50
2023-05-25T11:18:06.857Z,24.60
2023-05-25T11:20:34.538Z,24.50
2023-05-25T11:23:05.551Z,24.70
2023-05-25T11:25:33.200Z,25.20
2023-05-25T11:28:01.470Z,25.30
2023-05-25T11:30:28.608Z,25.60
2023-05-25T11:32:55.472Z,26.40
2023-05-25T11:35:22.322Z,26.40
2023-05-25T11:37:49.056Z,26.30
2023-05-25T11:40:17.126Z,25.90
2023-05-25T11:42:44.630Z,26.10
2023-05-25T11:45:12.425Z,26.50
2023-05-25T11:47:40.873Z,25.80
2023-05-25T11:50:07.923Z,25.80
2023-05-25T11:52:35.305Z,24.80
2023-05-25T11:55:02.129Z,24.30
2023-05-25T11:57:28.931Z,25.10
2023-05-25T11:59:56.299Z,25.20
2023-05-25T12:02:23.522Z,25.40
2023-05-25T12:04:50.539Z,25.40
2023-05-25T12:07:18.915Z,25.80
2023-05-25T12:09:49.679Z,25.70
2023-05-25T12:12:16.611Z,25.50
2023-05-25T12:14:43.422Z,25.70
2023-05-25T12:17:12.965Z,26.20
2023-05-25T12:19:39.898Z,26.90
2023-05-25T12:22:06.699Z,27.00
2023-05-25T12:24:33.598Z,27.30
2023-05-25T12:27:00.423Z,27.10
2023-05-25T12:29:27.244Z,27.20
2023-05-25T12:31:53.998Z,27.40
2023-05-25T12:34:21.030Z,27.30
2023-05-25T12:36:47.756Z,26.90
2023-05-25T12:39:15.626Z,26.70
2023-05-25T12:41:42.364Z,27.00
2023-05-25T12:44:09.126Z,27.40
2023-05-25T12:46:36.149Z,27.90
2023-05-25T12:49:03.049Z,27.40
2023-05-25T12:51:31.023Z,27.40
2023-05-25T12:53:58.073Z,26.90
2023-05-25T12:56:24.923Z,26.50
2023-05-25T12:58:54.259Z,26.40
2023-05-25T13:01:22.497Z,26.50
2023-05-25T13:03:49.393Z,26.50
2023-05-25T13:06:16.131Z,27.40
2023-05-25T13:08:42.932Z,27.70
2023-05-25T13:11:09.743Z,27.40
2023-05-25T13:13:37.514Z,27.10
2023-05-25T13:16:05.407Z,27.50
2023-05-25T13:18:32.174Z,27.40
2023-05-25T13:20:59.612Z,26.70
2023-05-25T13:23:29.041Z,26.90
2023-05-25T13:25:55.803Z,26.90
2023-05-25T13:28:22.573Z,26.70
2023-05-25T13:30:49.523Z,27.30
2023-05-25T13:33:20.554Z,27.60
2023-05-25T13:35:47.326Z,27.60
2023-05-25T13:38:16.546Z,27.80
2023-05-25T13:40:45.611Z,28.00
2023-05-25T13:43:15.366Z,27.70
2023-05-25T13:45:42.883Z,27.70
2023-05-25T13:48:09.970Z,27.20
2023-05-25T13:50:37.382Z,27.30
2023-05-25T13:53:04.355Z,27.40
2023-05-25T13:55:34.441Z,27.80
2023-05-25T13:58:01.977Z,27.80
2023-05-25T14:00:29.812Z,27.60
2023-05-25T14:02:56.842Z,28.20
2023-05-25T14:05:23.739Z,28.00
2023-05-25T14:07:53.321Z,28.50
2023-05-25T14:10:22.049Z,29.00
2023-05-25T14:12:49.189Z,28.90
2023-05-25T14:15:16.266Z,28.10
2023-05-25T14:17:43.297Z,27.60
2023-05-25T14:20:17.171Z,27.90
2023-05-25T14:22:44.103Z,28.40
2023-05-25T14:25:13.756Z,28.50
2023-05-25T14:27:40.579Z,28.70
2023-05-25T14:30:09.686Z,28.70
2023-05-25T14:32:36.694Z,28.70
2023-05-25T14:35:03.711Z,28.60
2023-05-25T14:37:30.639Z,27.90
2023-05-25T14:40:04.981Z,27.90
2023-05-25T14:42:32.091Z,27.70
2023-05-25T14:44:58.913Z,27.40
2023-05-25T14:47:27.178Z,27.40
2023-05-25T14:49:54.039Z,27.60
2023-05-25T14:52:21.150Z,27.60
2023-05-25T14:54:47.960Z,28.00
2023-05-25T14:57:14.694Z,28.10
2023-05-25T14:59:45.802Z,28.10
2023-05-25T15:02:12.615Z,28.10
2023-05-25T15:04:41.109Z,28.30
2023-05-25T15:07:08.111Z,28.30
2023-05-25T15:09:34.870Z,27.90
2023-05-25T15:12:01.660Z,27.60
2023-05-25T15:14:32.693Z,27.40
2023-05-25T15:16:59.659Z,27.40
2023-05-25T15:19:26.590Z,27.20
2023-05-25T15:21:54.682Z,27.40
2023-05-25T15:24:22.108Z,27.40
2023-05-25T15:26:48.922Z,27.60
2023-05-25T15:29:15.720Z,27.90
2023-05-25T15:31:43.610Z,28.10
2023-05-25T15:34:11.028Z,28.40
2023-05-25T15:36:38.164Z,28.60
2023-05-25T15:39:04.889Z,29.00
2023-05-25T15:41:31.628Z,28.90
2023-05-25T15:43:59.113Z,28.60
2023-05-25T15:46:27.031Z,28.60
2023-05-25T15:48:54.042Z,28.10
2023-05-25T15:51:20.748Z,27.70
2023-05-25T15:53:48.295Z,27.30
2023-05-25T15:56:15.125Z,27.80
2023-05-25T15:58:43.034Z,27.90
2023-05-25T16:01:11.292Z,28.10
2023-05-25T16:03:40.114Z,28.00
2023-05-25T16:06:07.081Z,28.10
2023-05-25T16:08:38.224Z,27.70
2023-05-25T16:11:05.209Z,27.80
2023-05-25T16:13:32.139Z,28.00
2023-05-25T16:15:58.977Z,28.30
2023-05-25T16:18:25.768Z,28.60
2023-05-25T16:20:52.534Z,28.40
2023-05-25T16:23:19.293Z,28.20
2023-05-25T16:25:47.328Z,28.10
2023-05-25T16:28:14.165Z,27.30
2023-05-25T16:30:41.446Z,27.50
2023-05-25T16:33:08.356Z,27.60
2023-05-25T16:35:43.610Z,27.30
2023-05-25T16:38:10.763Z,26.90
2023-05-25T16:40:38.597Z,26.70
2023-05-25T16:43:16.616Z,26.30
2023-05-25T16:45:44.700Z,26.50
2023-05-25T16:48:12.251Z,26.40
2023-05-25T16:50:39.279Z,26.50
2023-05-25T16:53:07.093Z,26.40
2023-05-25T16:55:33.923Z,26.40
2023-05-25T16:58:01.646Z,26.40
2023-05-25T17:00:28.416Z,26.50
2023-05-25T17:02:55.281Z,26.40
2023-05-25T17:05:24.616Z,26.90
2023-05-25T17:07:51.606Z,27.80
2023-05-25T17:10:18.500Z,26.50
2023-05-25T17:12:45.458Z,25.90
2023-05-25T17:15:12.785Z,25.80
2023-05-25T17:17:40.119Z,25.70
2023-05-25T17:20:06.993Z,25.50
2023-05-25T17:22:33.865Z,25.40
2023-05-25T17:25:01.250Z,25.20
2023-05-25T17:27:27.988Z,25.20
2023-05-25T17:29:54.749Z,25.30
2023-05-25T17:32:22.284Z,25.50
2023-05-25T17:34:50.068Z,25.40
2023-05-25T17:37:18.088Z,25.40
2023-05-25T17:39:50.109Z,25.00
2023-05-25T17:42:17.116Z,25.10
2023-05-25T17:44:44.555Z,25.20
2023-05-25T17:47:11.539Z,25.00
2023-05-25T17:49:48.775Z,25.10
2023-05-25T17:52:15.572Z,24.90
2023-05-25T17:54:45.470Z,24.60
2023-05-25T17:57:12.306Z,24.20
2023-05-25T17:59:40.097Z,23.80
2023-05-25T18:02:08.420Z,23.30
2023-05-25T18:04:35.222Z,23.30
2023-05-25T18:07:02.559Z,23.30
2023-05-25T18:09:29.371Z,23.30
2023-05-25T18:11:57.434Z,23.10
2023-05-25T18:14:26.238Z,22.90
2023-05-25T18:16:53.225Z,23.30
2023-05-25T18:19:21.028Z,23.60
2023-05-25T18:21:48.861Z,23.60
2023-05-25T18:24:16.648Z,23.50
2023-05-25T18:26:43.481Z,23.60
2023-05-25T18:29:10.233Z,23.60
2023-05-25T18:31:37.176Z,23.50
2023-05-25T18:34:04.764Z,23.60
2023-05-25T18:36:31.615Z,23.40
2023-05-25T18:38:58.326Z,23.50
2023-05-25T18:41:25.338Z,23.60
2023-05-25T18:43:53.575Z,23.40
2023-05-25T18:46:20.456Z,23.00
2023-05-25T18:48:47.298Z,22.90
2023-05-25T18:51:14.051Z,23.00
2023-05-25T18:53:40.860Z,23.10
2023-05-25T18:56:07.637Z,22.80
2023-05-25T18:58:34.460Z,23.10
2023-05-25T19:01:01.303Z,22.70
2023-05-25T19:03:28.279Z,22.10
2023-05-25T19:05:55.238Z,22.20
2023-05-25T19:08:21.988Z,22.00
2023-05-25T19:10:49.961Z,22.20
2023-05-25T19:13:16.782Z,22.20
2023-05-25T19:15:43.691Z,22.30
2023-05-25T19:18:10.660Z,22.40
2023-05-25T19:20:37.662Z,22.40
2023-05-25T19:23:05.101Z,22.50
2023-05-25T19:25:31.860Z,22.70
2023-05-25T19:27:58.722Z,22.80
2023-05-25T19:30:25.528Z,22.80
2023-05-25T19:32:52.418Z,22.80
2023-05-25T19:35:19.385Z,23.00
2023-05-25T19:37:51.248Z,22.90
2023-05-25T19:40:18.160Z,22.70
2023-05-25T19:42:44.933Z,22.60
2023-05-25T19:45:11.735Z,22.90
2023-05-25T19:47:38.525Z,23.00
2023-05-25T19:50:05.927Z,23.30
2023-05-25T19:52:33.611Z,23.40
2023-05-25T19:55:00.733Z,23.40
2023-05-25T19:57:27.563Z,23.60
2023-05-25T19:59:54.323Z,23.60
2023-05-25T20:02:21.080Z,22.90
2023-05-25T20:04:47.856Z,23.10
2023-05-25T20:07:14.695Z,23.20
2023-05-25T20:09:41.449Z,23.30
2023-05-25T20:12:08.779Z,22.90
2023-05-25T20:14:35.611Z,22.60
2023-05-25T20:17:03.014Z,22.60
2023-05-25T20:19:29.813Z,22.10
2023-05-25T20:21:58.159Z,21.50
2023-05-25T20:24:25.125Z,21.70
2023-05-25T20:26:52.248Z,21.90
2023-05-25T20:29:19.454Z,22.30
2023-05-25T20:31:47.352Z,22.10
2023-05-25T20:34:14.180Z,22.10
2023-05-25T20:36:41.611Z,22.10
2023-05-25T20:39:08.401Z,22.40
2023-05-25T20:41:35.212Z,22.50
2023-05-25T20:44:01.972Z,22.70
2023-05-25T20:46:30.954Z,22.90
2023-05-25T20:48:57.990Z,22.80
2023-05-25T20:51:24.769Z,22.90
2023-05-25T20:53:53.780Z,22.70
2023-05-25T20:56:21.557Z,22.80
2023-05-25T20:58:48.623Z,22.80
2023-05-25T21:01:15.414Z,22.80
2023-05-25T21:03:43.351Z,22.80
2023-05-25T21:06:11.364Z,22.70
2023-05-25T21:08:38.104Z,22.70
2023-05-25T21:11:06.086Z,22.60
2023-05-25T21:13:36.375Z,22.40
2023-05-25T21:16:03.423Z,22.20
2023-05-25T21:18:31.130Z,22.10
2023-05-25T21:20:57.999Z,22.20
2023-05-25T21:23:24.822Z,22.30
2023-05-25T21:25:51.650Z,22.30
2023-05-25T21:28:22.985Z,22.40
2023-05-25T21:30:49.915Z,22.40
2023-05-25T21:33:16.683Z,22.50
2023-05-25T21:35:43.769Z,22.50
2023-05-25T21:38:10.941Z,22.50
2023-05-25T21:40:37.988Z,22.60
2023-05-25T21:43:04.819Z,22.70
2023-05-25T21:45:34.247Z,22.70
2023-05-25T21:48:01.105Z,22.70
2023-05-25T21:50:27.874Z,22.60
2023-05-25T21:52:58.369Z,22.10
2023-05-25T21:55:25.193Z,21.70
2023-05-25T21:57:52.432Z,22.10
2023-05-25T22:00:20.280Z,22.20
2023-05-25T22:02:47.179Z,22.30
2023-05-25T22:05:14.180Z,22.30
2023-05-25T22:07:41.366Z,22.30
2023-05-25T22:10:08.114Z,22.30
2023-05-25T22:12:35.690Z,22.40
2023-05-25T22:15:03.937Z,22.50
2023-05-25T22:17:33.653Z,22.50
2023-05-25T22:22:32.341Z,22.40
2023-05-25T22:24:59.541Z,22.30
2023-05-25T22:27:26.924Z,22.30
2023-05-25T22:29:54.716Z,22.30
2023-05-25T22:32:23.721Z,22.10
2023-05-25T22:34:50.520Z,22.10
2023-05-25T22:37:17.357Z,22.00
2023-05-25T22:39:45.156Z,21.90
2023-05-25T22:42:13.209Z,21.80
2023-05-25T22:44:40.564Z,21.70
2023-05-25T22:47:07.364Z,21.70
2023-05-25T22:49:36.838Z,21.60
2023-05-25T22:52:04.517Z,21.50
2023-05-25T22:54:31.358Z,21.40
2023-05-25T22:57:02.725Z,21.30
2023-05-25T22:59:33.132Z,21.10
2023-05-25T23:02:01.688Z,21.10
2023-05-25T23:04:32.954Z,21.10
2023-05-25T23:07:00.738Z,21.00
2023-05-25T23:09:27.499Z,20.90
2023-05-25T23:11:54.267Z,20.80
2023-05-25T23:14:21.096Z,20.80
2023-05-25T23:16:47.913Z,20.80
2023-05-25T23:19:14.699Z,20.80
2023-05-25T23:21:41.536Z,20.70
2023-05-25T23:24:08.510Z,20.60
2023-05-25T23:26:36.309Z,20.60
2023-05-25T23:29:04.515Z,20.60
2023-05-25T23:31:31.807Z,20.60
2023-05-25T23:33:58.873Z,20.60
2023-05-25T23:36:26.684Z,20.40
2023-05-25T23:38:53.490Z,20.40
2023-05-25T23:41:20.257Z,20.50
2023-05-25T23:43:47.090Z,20.50
2023-05-25T23:46:15.470Z,20.50
2023-05-25T23:48:42.257Z,20.20
2023-05-25T23:51:09.096Z,20.00
2023-05-25T23:53:35.938Z,20.10
2023-05-25T23:56:02.772Z,20.10
2023-05-25T23:58:32.570Z,20.30
